Time;durP1;ratioP1;P1;durP2;ratioP2;P2;SDS_P1;SDS_P2;PMS_P1;PMS_P2;Temp;Humidity;BMP_temperature;BMP_pressure;BME280_temperature;BME280_humidity;BME280_pressure;Samples;Min_cycle;Max_cycle;Signal;HPM_P1;HPM_P2
2020/12/05 00:04:03;;;;;;;16.55;8.38;;;;;;;4.46;100.00;98088.95;4361034;80;28551;-75
2020/12/05 00:10:05;;;;;;;16.37;8.48;;;;;;;4.54;100.00;98084.70;4358245;80;28660;-75
2020/12/05 00:16:07;;;;;;;16.32;7.62;;;;;;;4.79;100.00;98083.09;4349670;80;28560;-75
2020/12/05 00:22:09;;;;;;;13.62;7.10;;;;;;;4.70;100.00;98082.02;4320830;80;28682;-75
2020/12/05 00:28:11;;;;;;;12.85;6.30;;;;;;;4.81;100.00;98080.52;4302946;80;28552;-75
2020/12/05 00:34:14;;;;;;;10.15;5.53;;;;;;;5.02;100.00;98073.97;4299850;82;28659;-75
2020/12/05 00:40:16;;;;;;;12.03;5.92;;;;;;;5.35;100.00;98079.20;4359256;82;28559;-77
2020/12/05 00:46:18;;;;;;;12.13;6.25;;;;;;;5.64;100.00;98102.19;4295642;82;28608;-77
2020/12/05 00:52:23;;;;;;;10.15;5.42;;;;;;;5.89;100.00;98101.31;4297559;82;28611;-76
2020/12/05 00:58:26;;;;;;;;;;;;;;;5.99;100.00;98119.74;4335563;80;28569;-76
2020/12/05 01:04:28;;;;;;;9.35;4.33;;;;;;;6.15;100.00;98113.55;4303528;80;20262;-76
2020/12/05 01:10:33;;;;;;;10.65;5.72;;;;;;;6.28;100.00;98115.20;4322524;80;28591;-75
2020/12/05 01:16:35;;;;;;;8.85;4.97;;;;;;;6.41;100.00;98108.37;4321916;81;28632;-75
2020/12/05 01:22:37;;;;;;;8.48;4.65;;;;;;;6.50;100.00;98104.02;4373126;81;28603;-75
2020/12/05 01:28:39;;;;;;;10.32;5.90;;;;;;;6.56;100.00;98107.12;4351955;80;28551;-75
2020/12/05 01:34:41;;;;;;;10.90;6.53;;;;;;;6.63;100.00;98117.70;4354504;81;28557;-75
2020/12/05 01:40:53;;;;;;;11.75;6.50;;;;;;;6.62;100.00;98124.92;4353915;81;28642;-75
2020/12/05 01:46:55;;;;;;;10.88;4.90;;;;;;;6.58;100.00;98112.25;4303105;81;28544;-75
2020/12/05 01:52:57;;;;;;;9.10;5.12;;;;;;;6.61;100.00;98116.63;4329709;81;28632;-75
2020/12/05 01:58:59;;;;;;;11.63;5.53;;;;;;;6.64;100.00;98105.98;4315639;80;28612;-75
2020/12/05 02:05:24;;;;;;;12.75;6.67;;;;;;;6.66;100.00;98112.73;4327153;81;28552;-75
2020/12/05 02:11:31;;;;;;;12.33;6.60;;;;;;;6.68;100.00;98113.84;4294164;80;28598;-75
2020/12/05 02:17:38;;;;;;;8.83;5.25;;;;;;;6.67;100.00;98105.55;4330182;82;28572;-75
2020/12/05 02:23:43;;;;;;;9.68;4.92;;;;;;;6.61;100.00;98105.11;4312224;81;28604;-76
2020/12/05 02:29:47;;;;;;;11.48;5.92;;;;;;;6.61;100.00;98100.59;4290078;82;28565;-76
2020/12/05 02:35:49;;;;;;;13.13;6.42;;;;;;;6.55;100.00;98112.18;4289792;82;28624;-76
2020/12/05 02:41:51;;;;;;;12.00;6.50;;;;;;;6.53;100.00;98104.38;4310232;82;28573;-76
2020/12/05 02:47:53;;;;;;;12.65;6.85;;;;;;;6.45;100.00;98104.70;4325290;82;28712;-76
2020/12/05 02:53:56;;;;;;;9.30;5.17;;;;;;;6.37;100.00;98101.03;4326118;80;28568;-76
2020/12/05 02:59:58;;;;;;;9.25;4.90;;;;;;;6.32;100.00;98103.05;4333308;80;28602;-76
2020/12/05 03:06:00;;;;;;;8.83;5.62;;;;;;;6.38;100.00;98123.48;4353565;80;28545;-76
2020/12/05 03:12:03;;;;;;;9.78;5.95;;;;;;;6.32;100.00;98120.41;4331829;80;28626;-77
2020/12/05 03:18:05;;;;;;;10.48;6.25;;;;;;;6.20;100.00;98113.66;4363257;81;28624;-74
2020/12/05 03:24:07;;;;;;;12.63;6.55;;;;;;;5.99;100.00;98117.08;4338998;81;28591;-74
2020/12/05 03:30:09;;;;;;;8.58;5.15;;;;;;;5.92;100.00;98128.34;4302853;81;28617;-74
2020/12/05 03:36:11;;;;;;;9.30;5.03;;;;;;;5.92;100.00;98121.66;4334627;81;28552;-73
2020/12/05 03:42:15;;;;;;;10.68;6.10;;;;;;;5.95;100.00;98105.23;4325664;81;28567;-73
2020/12/05 03:48:17;;;;;;;11.48;6.12;;;;;;;5.97;100.00;98090.31;4309006;81;28555;-73
2020/12/05 03:54:20;;;;;;;11.48;6.33;;;;;;;5.54;100.00;98084.85;4306025;81;28659;-74
2020/12/05 04:00:22;;;;;;;11.88;6.50;;;;;;;5.33;100.00;98087.95;4327452;80;28591;-74
2020/12/05 04:06:24;;;;;;;10.43;5.05;;;;;;;5.27;100.00;98089.64;4316736;81;28583;-74
2020/12/05 04:12:27;;;;;;;10.48;5.87;;;;;;;5.22;100.00;98082.30;4356510;81;28571;-74
2020/12/05 04:18:30;;;;;;;12.33;6.90;;;;;;;5.25;100.00;98083.72;4348341;81;28569;-75
2020/12/05 04:24:32;;;;;;;13.88;7.42;;;;;;;5.36;100.00;98084.33;4335027;81;28570;-75
2020/12/05 04:30:35;;;;;;;13.83;7.12;;;;;;;5.50;100.00;98082.34;4222319;84;28558;-76
2020/12/05 04:36:37;;;;;;;14.60;7.72;;;;;;;5.60;100.00;98103.15;4257816;83;28596;-75
2020/12/05 04:42:48;;;;;;;12.58;7.37;;;;;;;5.63;100.00;98108.56;4257083;82;28601;-75
2020/12/05 04:48:52;;;;;;;14.70;8.08;;;;;;;5.78;100.00;98128.20;4253529;83;28546;-74
2020/12/05 04:54:56;;;;;;;14.07;6.85;;;;;;;5.86;100.00;98124.70;4253831;83;28586;-74
2020/12/05 05:00:58;;;;;;;11.33;5.95;;;;;;;5.83;100.00;98124.33;4269439;83;28575;-74
2020/12/05 05:07:04;;;;;;;10.05;5.62;;;;;;;5.84;100.00;98117.98;4268911;83;28563;-74
2020/12/05 05:13:21;;;;;;;12.27;6.90;;;;;;;5.92;100.00;98120.87;4215549;83;28547;-74
2020/12/05 05:19:23;;;;;;;;;;;;;;;5.83;100.00;98127.83;4326789;81;28561;-74
2020/12/05 05:25:25;;;;;;;12.07;6.50;;;;;;;5.61;100.00;98137.31;4329961;82;20272;-75
2020/12/05 05:37:53;;;;;;;10.48;5.47;;;;;;;5.32;100.00;98135.13;4486082;77;73570;-76
2020/12/05 05:44:05;;;;;;;10.00;5.35;;;;;;;5.42;100.00;98150.61;4410170;80;28549;-76
2020/12/05 05:50:30;;;;;;;11.45;5.58;;;;;;;5.38;100.00;98153.42;4380591;78;28540;-74
2020/12/05 05:56:32;;;;;;;17.10;8.93;;;;;;;5.44;100.00;98165.36;4391043;80;28541;-75
2020/12/05 06:02:37;;;;;;;15.45;7.87;;;;;;;5.66;100.00;98183.61;4372125;80;28551;-75
2020/12/05 06:08:41;;;;;;;14.60;7.83;;;;;;;5.72;100.00;98186.72;4359726;80;28673;-74
2020/12/05 06:14:44;;;;;;;12.47;6.33;;;;;;;5.75;100.00;98195.34;4381840;80;28647;-74
2020/12/05 06:20:47;;;;;;;9.28;5.12;;;;;;;5.70;100.00;98196.00;4369571;80;28575;-72
2020/12/05 06:26:52;;;;;;;14.23;7.12;;;;;;;5.39;100.00;98195.04;4389139;80;28573;-73
2020/12/05 06:39:18;;;;;;;14.13;9.43;;;;;;;5.64;100.00;98213.69;4367945;79;274585;-75
2020/12/05 06:45:33;;;;;;;13.70;7.65;;;;;;;5.79;100.00;98222.69;4324818;81;28556;-74
2020/12/05 06:51:35;;;;;;;13.40;7.30;;;;;;;5.55;100.00;98214.47;4335093;81;28606;-75
2020/12/05 06:57:40;;;;;;;13.88;6.40;;;;;;;5.70;100.00;98226.67;4297494;81;28589;-74
2020/12/05 07:03:42;;;;;;;12.03;6.10;;;;;;;5.57;100.00;98241.75;4313320;81;43316;-72
2020/12/05 07:09:45;;;;;;;11.93;6.05;;;;;;;5.35;100.00;98240.47;4327285;81;28592;-73
2020/12/05 07:15:47;;;;;;;14.73;7.90;;;;;;;5.33;100.00;98240.71;4321510;81;28539;-72
2020/12/05 07:21:50;;;;;;;14.10;7.67;;;;;;;5.37;100.00;98235.77;4314096;81;28550;-73
2020/12/05 07:27:54;;;;;;;13.78;7.45;;;;;;;5.27;100.00;98251.72;4321294;81;28582;-74
2020/12/05 07:33:57;;;;;;;14.75;8.28;;;;;;;5.40;100.00;98256.66;4304071;81;28569;-74
2020/12/05 07:40:02;;;;;;;13.00;7.28;;;;;;;5.68;100.00;98256.21;4321067;80;28585;-73
2020/12/05 07:46:07;;;;;;;11.03;6.12;;;;;;;5.61;100.00;98259.45;4292453;81;28546;-74
2020/12/05 07:52:10;;;;;;;9.18;5.03;;;;;;;5.76;100.00;98255.65;4310997;82;28611;-73
2020/12/05 07:58:12;;;;;;;13.38;7.12;;;;;;;5.97;100.00;98255.74;4310538;82;28594;-73
2020/12/05 08:04:37;;;;;;;16.12;8.05;;;;;;;6.11;100.00;98269.80;4331293;82;28594;-74
2020/12/05 08:10:40;;;;;;;17.40;9.40;;;;;;;6.25;100.00;98282.00;4347898;80;28626;-71
2020/12/05 08:16:43;;;;;;;13.93;7.92;;;;;;;6.37;100.00;98296.74;4291633;82;28590;-72
2020/12/05 08:22:45;;;;;;;10.15;5.45;;;;;;;6.26;100.00;98290.80;4313791;82;28582;-70
2020/12/05 08:28:49;;;;;;;12.63;5.47;;;;;;;6.17;100.00;98294.80;4332383;80;28559;-73
2020/12/05 08:35:05;;;;;;;11.33;6.65;;;;;;;6.11;100.00;98294.66;4325497;81;28596;-72
2020/12/05 08:41:07;;;;;;;12.95;7.25;;;;;;;6.28;100.00;98306.08;4312351;82;28552;-74
2020/12/05 08:47:09;;;;;;;15.72;9.28;;;;;;;6.39;100.00;98317.89;4308992;82;28544;-73
2020/12/05 08:53:14;;;;;;;14.18;8.13;;;;;;;6.48;100.00;98320.57;4338306;82;28605;-73
2020/12/05 08:59:26;;;;;;;13.75;7.37;;;;;;;6.66;100.00;98315.74;4297271;82;28574;-73
2020/12/05 09:05:28;;;;;;;12.63;6.30;;;;;;;6.70;100.00;98310.77;4314159;82;28564;-74
2020/12/05 09:11:30;;;;;;;18.02;7.72;;;;;;;6.89;100.00;98318.78;4360139;82;28662;-73
2020/12/05 09:17:34;;;;;;;15.72;9.18;;;;;;;7.03;100.00;98318.89;4331591;82;28540;-73
2020/12/05 09:23:36;;;;;;;17.12;8.45;;;;;;;6.88;100.00;98313.14;4306886;82;28624;-73
2020/12/05 09:29:38;;;;;;;18.92;9.95;;;;;;;6.96;100.00;98298.94;4338450;82;28598;-73
2020/12/05 09:35:40;;;;;;;18.10;7.62;;;;;;;7.04;100.00;98302.34;4304535;81;28582;-74
2020/12/05 09:41:42;;;;;;;15.55;8.80;;;;;;;7.03;100.00;98296.68;4257274;83;28645;-73
2020/12/05 09:47:44;;;;;;;18.70;10.40;;;;;;;7.35;100.00;98291.92;4187504;82;28576;-74
2020/12/05 09:53:46;;;;;;;21.60;11.78;;;;;;;7.56;100.00;98300.45;4207817;82;28631;-73
2020/12/05 09:59:49;;;;;;;20.05;9.98;;;;;;;7.62;100.00;98302.23;4236830;83;28604;-74
2020/12/05 10:05:51;;;;;;;18.23;9.20;;;;;;;7.63;100.00;98281.62;4253880;83;28617;-74
2020/12/05 10:11:53;;;;;;;15.48;8.70;;;;;;;7.60;100.00;98278.91;4199608;83;28601;-74
2020/12/05 10:17:55;;;;;;;16.67;8.13;;;;;;;7.51;100.00;98278.95;4211690;83;28615;-75
2020/12/05 10:23:57;;;;;;;18.15;8.38;;;;;;;7.41;100.00;98288.05;4193703;84;28616;-74
2020/12/05 10:29:59;;;;;;;20.90;10.10;;;;;;;7.65;100.00;98287.05;4244507;83;28655;-75
2020/12/05 10:36:01;;;;;;;18.57;9.95;;;;;;;7.79;100.00;98296.19;4241087;83;28657;-73
2020/12/05 10:42:04;;;;;;;19.48;10.95;;;;;;;7.85;100.00;98295.78;4191957;84;28661;-79
2020/12/05 10:48:06;;;;;;;19.70;10.98;;;;;;;8.00;100.00;98292.14;4189768;84;28547;-79
2020/12/05 10:54:08;;;;;;;20.88;11.25;;;;;;;8.14;100.00;98307.96;4177744;83;28573;-79
2020/12/05 11:00:10;;;;;;;17.77;9.20;;;;;;;8.38;100.00;98310.11;4201074;84;28609;-81
2020/12/05 11:06:23;;;;;;;17.25;9.15;;;;;;;8.57;100.00;98308.13;4183570;84;28585;-77
2020/12/05 11:12:25;;;;;;;17.27;8.90;;;;;;;8.83;100.00;98300.62;4173910;84;28593;-77
2020/12/05 11:18:27;;;;;;;18.70;10.03;;;;;;;8.86;100.00;98294.77;4184312;84;28600;-77
2020/12/05 11:24:30;;;;;;;18.20;9.80;;;;;;;9.07;100.00;98295.16;4180011;84;28553;-78
2020/12/05 11:30:32;;;;;;;17.77;9.93;;;;;;;9.27;100.00;98297.42;4189680;84;28613;-77
2020/12/05 11:36:35;;;;;;;20.00;10.45;;;;;;;9.28;100.00;98297.70;4254670;81;28652;-77
2020/12/05 11:42:37;;;;;;;20.88;10.65;;;;;;;9.17;100.00;98305.28;4338555;80;28607;-77
2020/12/05 11:48:40;;;;;;;17.12;9.10;;;;;;;9.22;100.00;98308.59;4341414;81;28544;-77
2020/12/05 11:54:42;;;;;;;15.83;8.05;;;;;;;9.33;100.00;98313.88;4335742;81;28552;-78
2020/12/05 12:00:44;;;;;;;15.15;8.05;;;;;;;9.50;100.00;98317.13;4335990;81;28939;-78
2020/12/05 12:06:48;;;;;;;11.95;7.08;;;;;;;9.68;100.00;98320.11;4193293;84;28546;-77
2020/12/05 12:12:50;;;;;;;12.88;7.10;;;;;;;9.83;100.00;98328.95;4264339;81;28612;-77
2020/12/05 12:18:53;;;;;;;11.22;6.20;;;;;;;9.89;100.00;98340.07;4246289;82;28549;-77
2020/12/05 12:24:55;;;;;;;11.73;6.75;;;;;;;10.00;100.00;98344.27;4251996;81;28552;-77
2020/12/05 12:30:57;;;;;;;11.83;7.15;;;;;;;9.99;100.00;98348.80;4254924;82;28577;-79
2020/12/05 12:37:03;;;;;;;10.98;6.33;;;;;;;10.01;100.00;98342.66;4177817;82;28670;-80
2020/12/05 12:43:04;;;;;;;9.15;5.00;;;;;;;9.92;100.00;98345.46;4227068;82;28580;-80
2020/12/05 12:49:06;;;;;;;9.28;5.12;;;;;;;9.93;100.00;98349.77;4193710;82;28561;-78
2020/12/05 12:55:08;;;;;;;12.82;6.40;;;;;;;10.04;100.00;98355.59;4204355;82;28578;-79
2020/12/05 13:01:10;;;;;;;10.72;6.47;;;;;;;10.18;100.00;98359.31;4173148;84;28599;-77
2020/12/05 13:07:12;;;;;;;14.35;6.45;;;;;;;10.18;100.00;98372.73;4207774;83;28550;-80
2020/12/05 13:13:14;;;;;;;11.05;7.00;;;;;;;10.16;100.00;98382.92;4173455;83;28655;-83
2020/12/05 13:19:17;;;;;;;10.43;6.62;;;;;;;10.18;100.00;98382.14;4181024;84;28663;-80
2020/12/05 13:25:19;;;;;;;13.13;6.85;;;;;;;10.09;100.00;98369.63;4169334;83;28658;-80
2020/12/05 13:31:33;;;;;;;10.08;6.12;;;;;;;10.00;100.00;98377.28;4169769;83;28572;-80
2020/12/05 13:37:36;;;;;;;8.80;4.85;;;;;;;9.94;100.00;98380.14;4202510;83;28588;-81
2020/12/05 13:43:38;;;;;;;8.78;5.10;;;;;;;9.93;100.00;98386.02;4255375;83;28600;-80
2020/12/05 13:49:40;;;;;;;11.78;6.08;;;;;;;9.95;100.00;98385.79;4236242;83;28647;-81
2020/12/05 13:55:42;;;;;;;9.20;5.55;;;;;;;10.00;100.00;98407.37;4317006;82;28641;-80
2020/12/05 14:01:44;;;;;;;10.68;6.22;;;;;;;9.95;100.00;98408.09;4302122;82;28651;-84
2020/12/05 14:07:49;;;;;;;14.78;5.85;;;;;;;9.89;100.00;98408.55;4297345;81;28650;-82
2020/12/05 14:13:51;;;;;;;11.55;5.40;;;;;;;9.82;100.00;98413.23;4321492;82;28571;-82
2020/12/05 14:19:53;;;;;;;10.28;6.22;;;;;;;9.68;100.00;98424.80;4294503;82;28598;-82
2020/12/05 14:25:55;;;;;;;10.70;4.87;;;;;;;9.61;100.00;98428.97;4312389;82;28586;-81
2020/12/05 14:31:58;;;;;;;9.85;4.80;;;;;;;9.56;100.00;98433.43;4318557;82;28582;-82
2020/12/05 14:38:00;;;;;;;9.73;5.60;;;;;;;9.58;100.00;98444.22;4218050;83;28643;-81
2020/12/05 14:44:03;;;;;;;10.75;5.87;;;;;;;9.54;100.00;98456.47;4222068;82;28575;-81
2020/12/05 14:50:06;;;;;;;16.48;8.10;;;;;;;9.51;100.00;98466.34;4220625;82;28620;-79
2020/12/05 14:56:12;;;;;;;14.05;7.50;;;;;;;9.35;100.00;98474.07;4175714;83;29017;-79
2020/12/05 15:02:14;;;;;;;12.45;6.75;;;;;;;9.27;100.00;98470.95;4201020;84;28609;-83
2020/12/05 15:08:16;;;;;;;11.75;6.05;;;;;;;9.16;100.00;98473.93;4190842;84;28597;-82
2020/12/05 15:14:21;;;;;;;9.35;5.33;;;;;;;9.03;100.00;98473.68;4205321;84;28593;-80
2020/12/05 15:20:24;;;;;;;9.95;5.15;;;;;;;8.88;100.00;98487.02;4183936;84;28601;-82
2020/12/05 15:26:28;;;;;;;11.15;6.37;;;;;;;8.79;100.00;98491.09;4183617;84;28616;-83
2020/12/05 15:32:30;;;;;;;10.43;6.28;;;;;;;8.65;100.00;98491.33;4183259;84;28615;-80
2020/12/05 15:38:34;;;;;;;14.13;7.90;;;;;;;8.69;100.00;98504.25;4208446;82;28612;-82
2020/12/05 15:44:36;;;;;;;13.40;7.33;;;;;;;8.83;100.00;98504.84;4264623;82;28602;-80
2020/12/05 15:50:39;;;;;;;13.45;7.20;;;;;;;8.81;100.00;98498.41;4267857;82;28594;-81
2020/12/05 15:56:41;;;;;;;13.90;6.75;;;;;;;8.56;100.00;98515.48;4266866;82;28584;-81
2020/12/05 16:02:44;;;;;;;12.07;6.12;;;;;;;8.53;100.00;98511.11;4277964;82;28605;-81
2020/12/05 16:08:47;;;;;;;17.62;9.15;;;;;;;8.59;100.00;98516.90;4197033;84;28612;-81
2020/12/05 16:14:49;;;;;;;16.40;9.18;;;;;;;8.53;100.00;98518.64;4231603;83;28615;-77
2020/12/05 16:20:51;;;;;;;19.62;10.03;;;;;;;8.56;100.00;98515.48;4259008;83;28591;-77
2020/12/05 16:26:54;;;;;;;17.15;9.20;;;;;;;8.41;100.00;98518.58;4350637;81;28557;-84
2020/12/05 16:32:56;;;;;;;17.07;10.30;;;;;;;8.31;100.00;98520.48;4350233;80;28630;-75
2020/12/05 16:38:58;;;;;;;16.95;8.83;;;;;;;8.20;100.00;98518.59;4373285;81;28642;-73
2020/12/05 16:45:00;;;;;;;15.80;7.97;;;;;;;8.01;100.00;98502.58;4314903;80;28551;-74
2020/12/05 16:51:03;;;;;;;16.57;9.10;;;;;;;7.90;100.00;98512.72;4173488;84;28561;-74
2020/12/05 16:57:05;;;;;;;19.23;10.25;;;;;;;7.95;100.00;98506.16;4166809;84;28590;-76
2020/12/05 17:03:10;;;;;;;23.30;12.18;;;;;;;7.68;100.00;98511.33;4186322;84;28562;-74
2020/12/05 17:09:12;;;;;;;26.25;13.38;;;;;;;7.70;100.00;98518.31;4215840;84;28593;-74
2020/12/05 17:15:14;;;;;;;26.45;12.75;;;;;;;7.71;100.00;98518.64;4210569;82;28768;-74
2020/12/05 17:21:22;;;;;;;22.87;12.33;;;;;;;7.60;100.00;98525.55;4205099;83;28635;-73
2020/12/05 17:27:24;;;;;;;22.27;11.00;;;;;;;7.49;100.00;98517.23;4193347;84;28589;-72
2020/12/05 17:33:26;;;;;;;24.57;12.20;;;;;;;7.57;100.00;98506.73;4220513;83;28614;-72
2020/12/05 17:39:28;;;;;;;30.82;14.20;;;;;;;7.35;100.00;98503.19;4261963;82;28550;-72
2020/12/05 17:45:31;;;;;;;26.82;14.40;;;;;;;7.29;100.00;98504.09;4261605;82;28611;-72
2020/12/05 17:51:34;;;;;;;23.18;12.98;;;;;;;7.34;100.00;98506.91;4262181;82;28568;-72
2020/12/05 17:57:36;;;;;;;23.42;11.60;;;;;;;7.20;100.00;98512.91;4257536;82;28557;-72
2020/12/05 18:03:38;;;;;;;24.67;12.30;;;;;;;6.98;100.00;98525.91;4276845;82;28577;-71
2020/12/05 18:09:40;;;;;;;22.73;11.73;;;;;;;7.13;100.00;98528.20;4278263;82;28546;-72
2020/12/05 18:15:42;;;;;;;27.13;13.55;;;;;;;6.76;100.00;98530.28;4342849;80;28544;-74
2020/12/05 18:21:44;;;;;;;26.33;13.30;;;;;;;6.82;100.00;98528.59;4348598;81;28578;-71
2020/12/05 18:27:48;;;;;;;21.05;11.03;;;;;;;6.64;100.00;98536.87;4254312;82;28557;-72
2020/12/05 18:33:50;;;;;;;25.10;12.85;;;;;;;6.47;100.00;98537.09;4271357;81;28630;-71
2020/12/05 18:39:52;;;;;;;27.90;13.88;;;;;;;6.49;100.00;98540.36;4257725;81;28628;-71
2020/12/05 18:45:54;;;;;;;26.90;13.88;;;;;;;6.62;100.00;98534.94;4248715;82;28587;-74
2020/12/05 18:51:56;;;;;;;29.52;15.10;;;;;;;6.41;100.00;98539.61;4237877;82;28550;-73
2020/12/05 18:57:58;;;;;;;27.15;13.30;;;;;;;6.11;100.00;98552.22;4234244;82;28556;-72
2020/12/05 19:04:00;;;;;;;24.00;12.80;;;;;;;6.32;100.00;98560.09;4221139;83;28547;-72
2020/12/05 19:10:02;;;;;;;30.08;14.15;;;;;;;6.08;100.00;98568.64;4170151;84;28573;-72
2020/12/05 19:16:04;;;;;;;25.12;14.10;;;;;;;6.46;100.00;98563.50;4196658;84;28575;-71
2020/12/05 19:22:07;;;;;;;28.77;14.38;;;;;;;6.28;100.00;98569.88;4191214;84;28561;-71
2020/12/05 19:28:09;;;;;;;28.23;14.83;;;;;;;5.88;100.00;98569.22;4190019;84;28635;-71
2020/12/05 19:34:11;;;;;;;29.15;14.40;;;;;;;5.78;100.00;98570.52;4185221;83;28649;-72
2020/12/05 19:40:13;;;;;;;26.02;13.25;;;;;;;5.79;100.00;98576.65;4183203;84;28576;-74
2020/12/05 19:46:15;;;;;;;25.95;12.82;;;;;;;5.54;100.00;98577.36;4188617;84;28611;-73
2020/12/05 19:52:17;;;;;;;32.10;16.40;;;;;;;5.37;100.00;98576.46;4196575;84;28576;-74
2020/12/05 19:58:20;;;;;;;29.60;16.17;;;;;;;5.34;100.00;98578.72;4197295;84;28545;-73
2020/12/05 20:04:22;;;;;;;27.42;15.28;;;;;;;5.54;100.00;98579.49;4192976;84;28664;-73
2020/12/05 20:16:26;;;;;;;25.60;12.37;;;;;;;4.66;100.00;98591.26;4188332;84;28603;-73
2020/12/05 20:22:28;;;;;;;29.23;13.98;;;;;;;4.77;100.00;98579.19;4195264;84;28580;-74
2020/12/05 20:28:30;;;;;;;24.27;13.40;;;;;;;4.84;100.00;98579.99;4218946;83;28555;-74
2020/12/05 20:34:34;;;;;;;29.52;14.98;;;;;;;4.86;100.00;98568.64;4194839;83;28654;-77
2020/12/05 20:40:37;;;;;;;32.17;15.08;;;;;;;5.00;100.00;98559.61;4200213;84;28554;-77
2020/12/05 20:46:40;;;;;;;33.40;15.80;;;;;;;4.62;100.00;98564.22;4190811;84;28583;-77
2020/12/05 20:52:44;;;;;;;23.85;12.20;;;;;;;4.93;100.00;98565.97;4187730;84;28627;-74
2020/12/05 20:58:46;;;;;;;22.17;11.95;;;;;;;4.54;100.00;98561.24;4172897;84;28575;-74
2020/12/05 21:04:49;;;;;;;28.25;13.98;;;;;;;4.30;100.00;98566.13;4178028;84;28617;-74
2020/12/05 21:10:51;;;;;;;33.45;16.37;;;;;;;4.49;100.00;98573.03;4201933;84;28555;-74
2020/12/05 21:16:53;;;;;;;28.65;15.30;;;;;;;4.66;100.00;98564.12;4206070;83;28596;-73
2020/12/05 21:22:55;;;;;;;27.65;14.90;;;;;;;4.68;100.00;98568.73;4172462;84;28573;-74
2020/12/05 21:28:57;;;;;;;28.83;15.23;;;;;;;4.68;100.00;98554.09;4188952;84;28622;-77
2020/12/05 21:35:00;;;;;;;26.52;12.60;;;;;;;4.76;100.00;98562.38;4185537;84;28639;-75
2020/12/05 21:41:02;;;;;;;24.52;12.58;;;;;;;4.80;100.00;98560.97;4234072;82;28649;-74
2020/12/05 21:47:04;;;;;;;28.00;13.10;;;;;;;4.74;100.00;98558.61;4261999;82;28688;-75
2020/12/05 21:53:06;;;;;;;24.23;12.30;;;;;;;4.83;100.00;98569.03;4283401;82;28633;-73
2020/12/05 21:59:09;;;;;;;37.33;17.27;;;;;;;4.92;100.00;98565.14;4265683;82;28583;-72
2020/12/05 22:05:12;;;;;;;30.37;15.80;;;;;;;5.09;100.00;98564.20;4268240;82;28602;-75
2020/12/05 22:11:19;;;;;;;31.85;15.60;;;;;;;5.13;100.00;98577.94;4235584;82;28637;-74
2020/12/05 22:17:22;;;;;;;27.82;13.08;;;;;;;5.06;100.00;98553.96;4199767;82;28595;-74
2020/12/05 22:23:24;;;;;;;31.73;15.32;;;;;;;4.95;100.00;98566.08;4264776;82;28542;-75
2020/12/05 22:29:26;;;;;;;28.35;13.75;;;;;;;5.13;100.00;98576.59;4325146;81;28550;-75
2020/12/05 22:35:31;;;;;;;30.75;14.83;;;;;;;5.07;100.00;98573.45;4338539;81;28536;-75
2020/12/05 22:41:35;;;;;;;41.50;19.53;;;;;;;4.93;100.00;98558.78;4339062;81;28662;-74
2020/12/05 22:47:37;;;;;;;40.63;19.70;;;;;;;5.06;100.00;98558.48;4338650;81;28580;-75
2020/12/05 22:53:39;;;;;;;40.10;19.37;;;;;;;5.01;100.00;98561.24;4160285;84;28634;-73
2020/12/05 22:59:42;;;;;;;29.42;14.35;;;;;;;5.10;100.00;98565.86;4203931;84;28590;-72
2020/12/05 23:05:45;;;;;;;32.67;15.18;;;;;;;4.93;100.00;98557.45;4203422;82;28690;-73
2020/12/05 23:11:48;;;;;;;37.88;18.07;;;;;;;4.67;100.00;98561.77;4249393;83;28551;-73
2020/12/05 23:17:50;;;;;;;35.60;18.10;;;;;;;4.54;100.00;98575.09;4245716;83;28555;-72
2020/12/05 23:23:52;;;;;;;29.55;13.80;;;;;;;4.57;100.00;98572.01;4262936;83;28568;-71
2020/12/05 23:30:05;;;;;;;32.60;15.30;;;;;;;4.45;100.00;98568.62;4266026;83;28570;-71
2020/12/05 23:36:00;;;;;;;28.27;14.73;;;;;;;4.16;100.00;98561.78;4264120;83;28556;-71
2020/12/05 23:42:03;;;;;;;39.85;19.25;;;;;;;4.03;100.00;98562.06;4221589;83;28565;-72
2020/12/05 23:48:05;;;;;;;34.78;16.65;;;;;;;4.46;100.00;98566.76;4167718;84;28567;-72
2020/12/05 23:54:12;;;;;;;29.02;14.85;;;;;;;3.89;100.00;98554.55;4177553;84;28633;-75
